createdAt,value
2018-06-21T00:01:35.646Z,100523.28
2018-06-21T00:04:04.835Z,100520.89
2018-06-21T00:06:33.526Z,100515.78
2018-06-21T00:09:04.063Z,100507.00
2018-06-21T00:11:33.063Z,100510.32
2018-06-21T00:14:02.172Z,100507.11
2018-06-21T00:16:30.837Z,100506.79
2018-06-21T00:18:59.592Z,100510.55
2018-06-21T00:21:28.750Z,100511.14
2018-06-21T00:23:57.817Z,100508.30
2018-06-21T00:26:26.873Z,100510.78
2018-06-21T00:28:55.537Z,100510.58
2018-06-21T00:31:24.668Z,100509.08
2018-06-21T00:33:53.809Z,100506.77
2018-06-21T00:36:22.443Z,100502.76
2018-06-21T00:38:51.465Z,100497.95
2018-06-21T00:41:20.134Z,100490.94
2018-06-21T00:43:49.097Z,100491.43
2018-06-21T00:46:17.818Z,100487.13
2018-06-21T00:48:46.945Z,100487.83
2018-06-21T00:51:17.588Z,100491.52
2018-06-21T00:53:46.635Z,100489.92
2018-06-21T00:56:15.339Z,100493.73
2018-06-21T00:58:45.613Z,100488.13
2018-06-21T01:01:14.518Z,100486.91
2018-06-21T01:03:43.850Z,100473.89
2018-06-21T01:06:12.646Z,100475.67
2018-06-21T01:08:41.728Z,100470.98
2018-06-21T01:11:11.009Z,100469.69
2018-06-21T01:13:40.260Z,100475.02
2018-06-21T01:16:08.985Z,100473.33
2018-06-21T01:18:37.676Z,100467.97
2018-06-21T01:21:07.099Z,100463.78
2018-06-21T01:23:37.052Z,100465.91
2018-06-21T01:26:06.094Z,100464.00
2018-06-21T01:28:35.214Z,100454.87
2018-06-21T01:31:04.088Z,100457.77
2018-06-21T01:33:33.182Z,100460.09
2018-06-21T01:36:03.313Z,100459.61
2018-06-21T01:38:33.220Z,100460.10
2018-06-21T01:41:06.063Z,100460.53
2018-06-21T01:43:36.283Z,100456.58
2018-06-21T01:46:05.596Z,100459.38
2018-06-21T01:48:34.294Z,100454.86
2018-06-21T01:51:13.520Z,100457.33
2018-06-21T01:53:42.306Z,100455.39
2018-06-21T01:56:11.013Z,100449.19
2018-06-21T01:58:40.322Z,100446.58
2018-06-21T02:01:09.555Z,100445.67
2018-06-21T02:03:38.440Z,100441.88
2018-06-21T02:06:10.624Z,100434.24
2018-06-21T02:08:39.788Z,100434.16
2018-06-21T02:11:08.875Z,100431.97
2018-06-21T02:13:37.860Z,100431.80
2018-06-21T02:16:06.791Z,100428.48
2018-06-21T02:18:35.724Z,100427.92
2018-06-21T02:21:05.154Z,100422.81
2018-06-21T02:23:36.923Z,100419.99
2018-06-21T02:26:06.309Z,100426.91
2018-06-21T02:28:34.885Z,100407.05
2018-06-21T02:31:04.175Z,100407.27
2018-06-21T02:33:32.889Z,100407.78
2018-06-21T02:36:01.805Z,100402.87
2018-06-21T02:38:31.635Z,100398.69
2018-06-21T02:41:00.689Z,100393.44
2018-06-21T02:43:29.784Z,100392.09
2018-06-21T02:46:02.874Z,100388.08
2018-06-21T02:48:49.956Z,100393.02
2018-06-21T02:51:19.101Z,100391.86
2018-06-21T02:53:49.235Z,100389.50
2018-06-21T02:56:21.637Z,100379.20
2018-06-21T02:58:50.694Z,100374.38
2018-06-21T03:01:21.005Z,100376.29
2018-06-21T03:03:51.266Z,100373.58
2018-06-21T03:06:24.469Z,100370.45
2018-06-21T03:08:54.508Z,100371.62
2018-06-21T03:11:23.255Z,100366.52
2018-06-21T03:13:52.374Z,100361.63
2018-06-21T03:16:21.424Z,100367.35
2018-06-21T03:18:50.217Z,100363.30
2018-06-21T03:21:18.823Z,100366.05
2018-06-21T03:23:47.792Z,100358.86
2018-06-21T03:26:16.474Z,100351.61
2018-06-21T03:28:45.202Z,100351.36
2018-06-21T03:31:14.709Z,100347.53
2018-06-21T03:33:46.223Z,100347.97
2018-06-21T03:36:15.154Z,100347.30
2018-06-21T03:38:44.352Z,100338.98
2018-06-21T03:41:13.472Z,100340.39
2018-06-21T03:43:42.968Z,100333.69
2018-06-21T03:46:12.712Z,100335.73
2018-06-21T03:48:43.536Z,100330.53
2018-06-21T03:51:15.674Z,100321.70
2018-06-21T03:53:44.483Z,100322.41
2018-06-21T03:56:13.371Z,100319.36
2018-06-21T03:58:42.419Z,100312.32
2018-06-21T04:01:11.092Z,100309.48
2018-06-21T04:03:39.985Z,100301.94
2018-06-21T04:06:08.751Z,100300.16
2018-06-21T04:08:38.014Z,100292.54
2018-06-21T04:11:06.916Z,100294.09
2018-06-21T04:13:35.707Z,100288.06
2018-06-21T04:16:04.610Z,100278.52
2018-06-21T04:18:33.568Z,100270.67
2018-06-21T04:21:02.670Z,100256.58
2018-06-21T04:23:32.267Z,100255.03
2018-06-21T04:26:01.619Z,100254.46
2018-06-21T04:28:30.385Z,100261.83
2018-06-21T04:30:59.797Z,100262.03
2018-06-21T04:33:28.518Z,100255.42
2018-06-21T04:35:57.527Z,100255.53
2018-06-21T04:38:26.544Z,100247.50
2018-06-21T04:40:55.495Z,100244.34
2018-06-21T04:43:26.025Z,100243.78
2018-06-21T04:46:02.261Z,100250.86
2018-06-21T04:48:31.202Z,100253.98
2018-06-21T04:51:00.056Z,100249.41
2018-06-21T04:53:28.923Z,100251.16
2018-06-21T04:55:57.665Z,100240.05
2018-06-21T04:58:26.830Z,100229.38
2018-06-21T05:00:55.659Z,100235.67
2018-06-21T05:03:24.362Z,100224.72
2018-06-21T05:05:53.085Z,100227.03
2018-06-21T05:08:21.888Z,100221.38
2018-06-21T05:10:55.858Z,100220.59
2018-06-21T05:13:24.578Z,100215.82
2018-06-21T05:15:53.267Z,100211.88
2018-06-21T05:18:23.702Z,100204.77
2018-06-21T05:20:52.424Z,100207.86
2018-06-21T05:23:21.253Z,100209.25
2018-06-21T05:25:49.929Z,100210.56
2018-06-21T05:28:18.674Z,100217.31
2018-06-21T05:30:48.197Z,100210.95
2018-06-21T05:33:16.889Z,100207.28
2018-06-21T05:35:45.576Z,100214.64
2018-06-21T05:38:14.275Z,100211.34
2018-06-21T05:40:43.297Z,100200.69
2018-06-21T05:43:11.929Z,100204.50
2018-06-21T05:45:40.628Z,100199.28
2018-06-21T05:48:09.718Z,100201.06
2018-06-21T05:50:38.619Z,100193.59
2018-06-21T05:53:07.787Z,100195.93
2018-06-21T05:55:36.711Z,100196.34
2018-06-21T05:58:05.831Z,100188.55
2018-06-21T06:00:34.478Z,100187.72
2018-06-21T06:03:03.419Z,100182.45
2018-06-21T06:05:32.201Z,100188.05
2018-06-21T06:08:02.230Z,100184.73
2018-06-21T06:10:30.895Z,100179.13
2018-06-21T06:13:00.060Z,100177.00
2018-06-21T06:15:29.343Z,100177.97
2018-06-21T06:17:58.017Z,100175.30
2018-06-21T06:20:26.795Z,100177.16
2018-06-21T06:22:55.990Z,100177.66
2018-06-21T06:25:24.679Z,100176.69
2018-06-21T06:27:55.105Z,100164.84
2018-06-21T06:30:23.753Z,100160.75
2018-06-21T06:32:52.417Z,100154.09
2018-06-21T06:35:21.154Z,100152.77
2018-06-21T06:37:49.914Z,100153.78
2018-06-21T06:40:18.667Z,100148.13
2018-06-21T06:42:47.410Z,100141.28
2018-06-21T06:45:16.135Z,100136.66
2018-06-21T06:47:44.790Z,100130.91
2018-06-21T06:50:13.481Z,100129.81
2018-06-21T06:52:42.160Z,100127.81
2018-06-21T06:55:10.833Z,100127.38
2018-06-21T07:00:27.095Z,100121.86
2018-06-21T07:02:55.887Z,100114.48
2018-06-21T07:05:24.588Z,100106.70
2018-06-21T07:07:53.281Z,100104.81
2018-06-21T07:10:21.993Z,100103.06
2018-06-21T07:12:50.691Z,100099.35
2018-06-21T07:15:19.379Z,100088.53
2018-06-21T07:17:48.061Z,100090.34
2018-06-21T07:20:16.803Z,100090.69
2018-06-21T07:22:45.479Z,100081.11
2018-06-21T07:25:14.269Z,100066.77
2018-06-21T07:27:42.951Z,100063.01
2018-06-21T07:30:11.664Z,100059.98
2018-06-21T07:32:40.356Z,100051.38
2018-06-21T07:35:09.032Z,100049.24
2018-06-21T07:37:37.804Z,100044.14
2018-06-21T07:40:06.505Z,100035.91
2018-06-21T07:42:35.160Z,100032.59
2018-06-21T07:45:03.901Z,100022.99
2018-06-21T07:47:32.636Z,100023.83
2018-06-21T07:50:01.317Z,100023.44
2018-06-21T07:52:30.010Z,100012.80
2018-06-21T07:54:58.692Z,100007.80
2018-06-21T07:57:27.418Z,100000.00
2018-06-21T07:59:56.190Z,99997.37
2018-06-21T08:02:24.819Z,99985.33
2018-06-21T08:04:53.491Z,99987.17
2018-06-21T08:07:22.187Z,99981.62
2018-06-21T08:09:50.864Z,99982.35
2018-06-21T08:12:19.542Z,99974.12
2018-06-21T08:14:48.228Z,99970.13
2018-06-21T08:17:16.962Z,99974.11
2018-06-21T08:19:45.620Z,99974.31
2018-06-21T08:22:14.329Z,99971.33
2018-06-21T08:24:46.036Z,99974.08
2018-06-21T08:27:14.727Z,99970.63
2018-06-21T08:29:43.550Z,99971.70
2018-06-21T08:32:12.333Z,99967.67
2018-06-21T08:34:40.986Z,99967.05
2018-06-21T08:37:09.734Z,99968.23
2018-06-21T08:39:38.561Z,99964.09
2018-06-21T08:42:07.329Z,99970.48
2018-06-21T08:44:35.986Z,99965.81
2018-06-21T08:47:04.786Z,99975.44
2018-06-21T08:49:33.446Z,99971.50
2018-06-21T08:52:02.130Z,99970.77
2018-06-21T08:54:30.769Z,99973.98
2018-06-21T08:56:59.485Z,99972.45
2018-06-21T08:59:28.138Z,99981.53
2018-06-21T09:01:56.824Z,99978.69
2018-06-21T09:04:25.865Z,99982.08
2018-06-21T09:06:54.649Z,99972.70
2018-06-21T09:09:23.508Z,99985.33
2018-06-21T09:11:52.289Z,99980.88
2018-06-21T09:14:20.941Z,99966.70
2018-06-21T09:16:49.722Z,99965.66
2018-06-21T09:19:18.416Z,99967.25
2018-06-21T09:21:47.089Z,99963.13
2018-06-21T09:24:15.735Z,99965.00
2018-06-21T09:26:44.418Z,99957.09
2018-06-21T09:29:13.072Z,99962.87
2018-06-21T09:31:41.756Z,99964.56
2018-06-21T09:34:10.452Z,99966.55
2018-06-21T09:36:39.142Z,99973.45
2018-06-21T09:39:16.817Z,99964.66
2018-06-21T09:41:48.282Z,99959.97
2018-06-21T09:44:25.885Z,99963.63
2018-06-21T09:46:57.800Z,99952.78
2018-06-21T09:49:26.665Z,99951.70
2018-06-21T09:51:55.300Z,99943.83
2018-06-21T09:54:23.996Z,99940.30
2018-06-21T09:56:52.653Z,99929.23
2018-06-21T09:59:21.381Z,99937.45
2018-06-21T10:01:50.020Z,99933.13
2018-06-21T10:04:18.735Z,99943.14
2018-06-21T10:06:47.430Z,99939.22
2018-06-21T10:09:16.111Z,99940.69
2018-06-21T10:11:44.774Z,99932.96
2018-06-21T10:14:13.484Z,99938.30
2018-06-21T10:16:42.134Z,99939.87
2018-06-21T10:19:10.812Z,99943.84
2018-06-21T10:21:39.503Z,99946.01
2018-06-21T10:24:10.859Z,99956.50
2018-06-21T10:26:39.548Z,99963.82
2018-06-21T10:29:08.388Z,99964.34
2018-06-21T10:31:37.095Z,99962.30
2018-06-21T10:34:05.784Z,99950.01
2018-06-21T10:36:34.485Z,99972.68
2018-06-21T10:39:03.166Z,100015.41
2018-06-21T10:41:31.824Z,100074.23
2018-06-21T10:44:00.666Z,100072.27
2018-06-21T10:46:29.337Z,100083.70
2018-06-21T10:48:58.109Z,100116.86
2018-06-21T10:51:26.797Z,100123.10
2018-06-21T10:53:55.520Z,100138.54
2018-06-21T10:56:24.194Z,100146.28
2018-06-21T10:58:52.907Z,100139.61
2018-06-21T11:01:21.577Z,100162.45
2018-06-21T11:03:50.326Z,100167.94
2018-06-21T11:06:19.008Z,100175.87
2018-06-21T11:08:47.664Z,100188.63
2018-06-21T11:11:16.361Z,100175.33
2018-06-21T11:13:45.012Z,100203.35
2018-06-21T11:16:13.737Z,100207.39
2018-06-21T11:18:42.427Z,100239.11
2018-06-21T11:21:11.265Z,100252.05
2018-06-21T11:23:39.844Z,100249.58
2018-06-21T11:26:08.544Z,100263.05
2018-06-21T11:28:37.274Z,100285.30
2018-06-21T11:31:05.969Z,100284.45
2018-06-21T11:33:34.639Z,100274.89
2018-06-21T11:36:03.338Z,100290.18
2018-06-21T11:38:34.423Z,100288.48
2018-06-21T11:41:03.154Z,100305.37
2018-06-21T11:43:31.813Z,100305.82
2018-06-21T11:46:00.856Z,100316.55
2018-06-21T11:48:29.552Z,100327.09
2018-06-21T11:50:58.292Z,100325.39
2018-06-21T11:53:26.986Z,100336.41
2018-06-21T11:55:55.751Z,100324.02
2018-06-21T11:58:24.334Z,100326.01
2018-06-21T12:00:53.038Z,100340.39
2018-06-21T12:03:21.769Z,100337.70
2018-06-21T12:05:50.403Z,100358.47
2018-06-21T12:08:19.034Z,100363.94
2018-06-21T12:10:47.712Z,100363.13
2018-06-21T12:13:16.385Z,100365.81
2018-06-21T12:15:45.125Z,100368.16
2018-06-21T12:18:14.150Z,100363.17
2018-06-21T12:20:42.943Z,100372.44
2018-06-21T12:23:11.593Z,100381.47
2018-06-21T12:25:40.287Z,100375.45
2018-06-21T12:28:08.943Z,100380.65
2018-06-21T12:30:37.726Z,100383.75
2018-06-21T12:33:06.379Z,100391.90
2018-06-21T12:35:35.097Z,100403.27
2018-06-21T12:38:03.713Z,100404.48
2018-06-21T12:40:32.356Z,100409.35
2018-06-21T12:43:01.074Z,100405.13
2018-06-21T12:45:29.753Z,100393.34
2018-06-21T12:47:58.500Z,100388.09
2018-06-21T12:53:14.752Z,100385.27
2018-06-21T12:55:43.407Z,100387.64
2018-06-21T12:58:12.107Z,100381.38
2018-06-21T13:00:40.779Z,100380.73
2018-06-21T13:03:09.477Z,100381.11
2018-06-21T13:05:38.170Z,100381.31
2018-06-21T13:08:06.904Z,100381.97
2018-06-21T13:11:12.793Z,100386.92
2018-06-21T13:13:41.502Z,100399.97
2018-06-21T13:16:10.179Z,100392.81
2018-06-21T13:18:38.868Z,100388.77
2018-06-21T13:21:07.578Z,100387.95
2018-06-21T13:23:36.301Z,100383.45
2018-06-21T13:26:05.010Z,100388.29
2018-06-21T13:28:33.757Z,100391.69
2018-06-21T13:31:02.446Z,100386.46
2018-06-21T13:33:31.142Z,100383.61
2018-06-21T13:35:59.832Z,100417.14
2018-06-21T13:38:28.561Z,100426.34
2018-06-21T13:40:57.336Z,100422.27
2018-06-21T13:43:26.030Z,100439.58
2018-06-21T13:45:54.676Z,100436.59
2018-06-21T13:48:23.361Z,100422.77
2018-06-21T13:50:52.014Z,100428.88
2018-06-21T13:53:20.701Z,100433.41
2018-06-21T13:55:49.345Z,100411.98
2018-06-21T13:58:18.061Z,100437.34
2018-06-21T14:00:50.003Z,100436.80
2018-06-21T14:06:06.228Z,100434.34
2018-06-21T14:08:35.144Z,100428.33
2018-06-21T14:11:03.573Z,100433.81
2018-06-21T14:13:32.238Z,100448.39
2018-06-21T14:16:01.128Z,100467.58
2018-06-21T14:18:29.749Z,100446.33
2018-06-21T14:20:58.636Z,100438.83
2018-06-21T14:23:27.415Z,100436.89
2018-06-21T14:25:56.167Z,100463.78
2018-06-21T14:28:26.058Z,100446.96
2018-06-21T14:30:54.777Z,100455.25
2018-06-21T14:33:23.467Z,100451.05
2018-06-21T14:35:53.560Z,100454.84
2018-06-21T14:38:22.206Z,100459.89
2018-06-21T14:40:50.906Z,100456.06
2018-06-21T14:43:19.910Z,100469.55
2018-06-21T14:45:49.255Z,100465.56
2018-06-21T14:48:18.554Z,100471.48
2018-06-21T14:50:50.352Z,100469.11
2018-06-21T14:53:20.083Z,100472.88
2018-06-21T14:55:49.092Z,100457.09
2018-06-21T14:58:18.088Z,100470.85
2018-06-21T15:00:47.054Z,100464.14
2018-06-21T15:03:20.319Z,100456.95
2018-06-21T15:05:49.393Z,100466.34
2018-06-21T15:08:18.733Z,100459.42
2018-06-21T15:10:47.969Z,100466.63
2018-06-21T15:13:20.667Z,100462.48
2018-06-21T15:15:49.398Z,100460.79
2018-06-21T15:18:18.101Z,100472.79
2018-06-21T15:20:46.801Z,100487.70
2018-06-21T15:23:15.561Z,100486.69
2018-06-21T15:25:44.393Z,100483.26
2018-06-21T15:28:13.279Z,100485.43
2018-06-21T15:30:43.553Z,100496.77
2018-06-21T15:33:13.458Z,100509.59
2018-06-21T15:35:51.435Z,100508.59
2018-06-21T15:38:21.661Z,100507.28
2018-06-21T15:40:52.573Z,100516.45
2018-06-21T15:43:22.463Z,100518.41
2018-06-21T15:45:59.829Z,100526.16
2018-06-21T15:48:29.194Z,100529.02
2018-06-21T15:50:58.443Z,100535.84
2018-06-21T15:53:27.300Z,100531.66
2018-06-21T15:55:56.454Z,100538.22
2018-06-21T15:58:25.647Z,100540.01
2018-06-21T16:00:54.533Z,100536.03
2018-06-21T16:03:23.537Z,100541.87
2018-06-21T16:05:52.258Z,100545.66
2018-06-21T16:08:20.966Z,100548.94
2018-06-21T16:10:49.692Z,100569.16
2018-06-21T16:13:18.378Z,100552.72
2018-06-21T16:15:47.117Z,100543.30
2018-06-21T16:18:16.658Z,100559.69
2018-06-21T16:20:47.418Z,100563.55
2018-06-21T16:23:16.152Z,100572.92
2018-06-21T16:25:44.787Z,100571.70
2018-06-21T16:28:13.551Z,100573.38
2018-06-21T16:30:42.156Z,100577.64
2018-06-21T16:33:10.885Z,100576.37
2018-06-21T16:35:39.569Z,100582.86
2018-06-21T16:38:08.372Z,100591.66
2018-06-21T16:40:38.378Z,100596.37
2018-06-21T16:43:07.104Z,100590.15
2018-06-21T16:45:35.732Z,100593.98
2018-06-21T16:48:04.722Z,100595.22
2018-06-21T16:50:33.727Z,100596.17
2018-06-21T16:55:50.154Z,100587.38
2018-06-21T16:58:19.467Z,100594.67
2018-06-21T17:00:51.283Z,100594.38
2018-06-21T17:03:20.680Z,100598.09
2018-06-21T17:05:49.107Z,100603.74
2018-06-21T17:08:17.819Z,100597.89
2018-06-21T17:10:46.565Z,100600.11
2018-06-21T17:13:15.313Z,100611.66
2018-06-21T17:15:44.132Z,100614.44
2018-06-21T17:18:12.817Z,100602.48
2018-06-21T17:20:41.529Z,100610.30
2018-06-21T17:23:29.078Z,100613.69
2018-06-21T17:25:57.980Z,100620.09
2018-06-21T17:28:27.151Z,100619.86
2018-06-21T17:30:56.475Z,100619.38
2018-06-21T17:33:31.691Z,100627.53
2018-06-21T17:36:05.794Z,100627.37
2018-06-21T17:38:40.557Z,100646.73
2018-06-21T17:41:19.627Z,100635.48
2018-06-21T17:43:48.319Z,100640.04
2018-06-21T17:46:16.988Z,100647.50
2018-06-21T17:48:45.701Z,100649.68
2018-06-21T17:51:21.944Z,100653.63
2018-06-21T17:53:54.745Z,100640.34
2018-06-21T17:56:35.273Z,100660.84
2018-06-21T17:59:03.961Z,100652.99
2018-06-21T18:01:32.649Z,100667.89
2018-06-21T18:04:01.325Z,100656.80
2018-06-21T18:06:30.104Z,100668.13
2018-06-21T18:09:03.023Z,100666.53
2018-06-21T18:11:39.021Z,100675.84
2018-06-21T18:14:09.456Z,100676.14
2018-06-21T18:16:42.305Z,100677.78
2018-06-21T18:19:11.512Z,100678.97
2018-06-21T18:21:43.690Z,100682.14
2018-06-21T18:24:16.394Z,100687.77
2018-06-21T18:26:51.475Z,100684.58
2018-06-21T18:29:35.712Z,100684.05
2018-06-21T18:32:07.794Z,100681.52
2018-06-21T18:34:40.197Z,100687.45
2018-06-21T18:37:12.298Z,100683.55
2018-06-21T18:39:45.557Z,100693.00
2018-06-21T18:42:15.981Z,100702.94
2018-06-21T18:44:44.675Z,100712.81
2018-06-21T18:47:13.682Z,100709.95
2018-06-21T18:49:45.491Z,100717.69
2018-06-21T18:52:16.595Z,100735.37
2018-06-21T18:54:45.786Z,100722.14
2018-06-21T18:57:14.822Z,100727.80
2018-06-21T18:59:43.984Z,100737.79
2018-06-21T19:02:13.232Z,100743.72
2018-06-21T19:04:43.557Z,100745.44
2018-06-21T19:07:13.024Z,100755.33
2018-06-21T19:09:48.179Z,100762.20
2018-06-21T19:12:18.262Z,100760.00
2018-06-21T19:14:49.084Z,100775.86
2018-06-21T19:17:19.829Z,100790.80
2018-06-21T19:19:50.178Z,100790.30
2018-06-21T19:22:37.319Z,100796.77
2018-06-21T19:25:09.325Z,100797.23
2018-06-21T19:27:39.917Z,100804.32
2018-06-21T19:30:14.393Z,100820.00
2018-06-21T19:32:47.386Z,100818.53
2018-06-21T19:35:16.373Z,100817.45
2018-06-21T19:37:46.824Z,100828.97
2018-06-21T19:40:17.170Z,100826.48
2018-06-21T19:42:46.287Z,100831.48
2018-06-21T19:45:16.087Z,100835.55
2018-06-21T19:47:46.084Z,100832.63
2018-06-21T19:50:17.002Z,100837.95
2018-06-21T19:52:47.880Z,100848.77
2018-06-21T19:55:20.842Z,100843.55
2018-06-21T19:57:50.038Z,100852.50
2018-06-21T20:00:19.343Z,100855.61
2018-06-21T20:02:51.731Z,100855.14
2018-06-21T20:05:23.812Z,100862.33
2018-06-21T20:07:53.435Z,100862.30
2018-06-21T20:10:22.290Z,100860.50
2018-06-21T20:12:51.663Z,100860.80
2018-06-21T20:15:20.980Z,100865.18
2018-06-21T20:17:49.871Z,100868.14
2018-06-21T20:20:19.021Z,100870.86
2018-06-21T20:22:47.815Z,100874.91
2018-06-21T20:25:16.503Z,100878.92
2018-06-21T20:27:45.279Z,100872.13
2018-06-21T20:30:20.225Z,100877.52
2018-06-21T20:32:49.137Z,100884.53
2018-06-21T20:35:19.131Z,100885.63
2018-06-21T20:37:47.819Z,100883.45
2018-06-21T20:40:16.692Z,100888.83
2018-06-21T20:42:45.468Z,100892.42
2018-06-21T20:45:14.670Z,100897.80
2018-06-21T20:47:46.664Z,100899.08
2018-06-21T20:50:15.472Z,100906.17
2018-06-21T20:52:44.374Z,100901.22
2018-06-21T20:55:13.044Z,100907.76
2018-06-21T20:57:41.741Z,100906.19
2018-06-21T21:00:10.440Z,100914.00
2018-06-21T21:02:39.129Z,100917.34
2018-06-21T21:05:07.263Z,100911.29
2018-06-21T21:07:36.133Z,100909.26
2018-06-21T21:10:04.778Z,100914.78
2018-06-21T21:12:33.448Z,100917.55
2018-06-21T21:15:02.794Z,100914.30
2018-06-21T21:17:32.125Z,100913.78
2018-06-21T21:20:00.805Z,100909.46
2018-06-21T21:22:31.096Z,100909.02
2018-06-21T21:24:59.824Z,100903.37
2018-06-21T21:27:28.442Z,100913.15
2018-06-21T21:30:00.539Z,100913.45
2018-06-21T21:32:29.318Z,100915.23
2018-06-21T21:35:02.139Z,100906.75
2018-06-21T21:37:30.805Z,100908.91
2018-06-21T21:39:59.502Z,100915.11
2018-06-21T21:42:28.142Z,100905.34
2018-06-21T21:44:56.854Z,100909.83
2018-06-21T21:47:25.951Z,100913.91
2018-06-21T21:49:55.087Z,100907.12
2018-06-21T21:52:24.196Z,100908.05
2018-06-21T21:54:53.177Z,100907.42
2018-06-21T21:57:22.335Z,100910.73
2018-06-21T21:59:51.668Z,100916.59
2018-06-21T22:02:20.288Z,100920.32
2018-06-21T22:04:49.077Z,100919.05
2018-06-21T22:07:18.149Z,100910.12
2018-06-21T22:09:47.165Z,100907.00
2018-06-21T22:12:16.226Z,100907.09
2018-06-21T22:14:45.235Z,100902.22
2018-06-21T22:17:14.161Z,100906.62
2018-06-21T22:19:43.020Z,100907.42
2018-06-21T22:22:12.139Z,100907.38
2018-06-21T22:24:41.480Z,100911.30
2018-06-21T22:27:10.691Z,100908.64
2018-06-21T22:29:39.598Z,100904.34
2018-06-21T22:32:08.530Z,100909.47
2018-06-21T22:34:37.577Z,100903.27
2018-06-21T22:37:11.883Z,100906.12
2018-06-21T22:39:43.075Z,100910.61
2018-06-21T22:42:17.354Z,100905.69
2018-06-21T22:44:46.701Z,100907.02
2018-06-21T22:47:15.951Z,100904.74
2018-06-21T22:49:46.363Z,100902.79
2018-06-21T22:52:16.358Z,100902.31
2018-06-21T22:54:47.430Z,100901.89
2018-06-21T22:57:17.363Z,100907.95
2018-06-21T22:59:51.755Z,100915.25
2018-06-21T23:02:22.793Z,100914.11
2018-06-21T23:04:52.152Z,100905.94
2018-06-21T23:07:22.934Z,100915.75
2018-06-21T23:09:52.302Z,100919.67
2018-06-21T23:12:23.857Z,100916.50
2018-06-21T23:14:54.473Z,100917.73
2018-06-21T23:17:23.812Z,100920.87
2018-06-21T23:19:52.926Z,100925.91
2018-06-21T23:22:21.783Z,100916.50
2018-06-21T23:24:50.685Z,100917.78
2018-06-21T23:27:19.956Z,100930.86
2018-06-21T23:29:49.377Z,100913.69
2018-06-21T23:32:18.465Z,100918.20
2018-06-21T23:34:47.339Z,100913.46
2018-06-21T23:37:17.373Z,100923.15
2018-06-21T23:39:47.677Z,100916.41
2018-06-21T23:42:16.873Z,100918.36
2018-06-21T23:44:46.818Z,100917.27
2018-06-21T23:47:19.584Z,100916.97
2018-06-21T23:49:48.465Z,100920.34
2018-06-21T23:52:19.936Z,100913.61
2018-06-21T23:54:49.144Z,100911.19
2018-06-21T23:57:18.622Z,100909.52
2018-06-21T23:59:49.380Z,100902.03
